NV83 weather

Hadley Airport
Round Mountain, Nevada, United States

Public forecast

Using degrees Fahrenheit for public forecast. Weather courtesy of forecast.io.

Closest aviation weather report (METAR) to Hadley Airport

Closest report is Tonopah Airport, 38.2 nm (70.7 km) S. Retrieved 2020/04/09 00:27 UTC (22 minutes ago):

KTPH 090027Z AUTO 14016G26KT 3SM RA BR FEW021 OVC026 05/03 A3001 RMK AO2 PK WND 15031/0012 P0006 T00500033

Closest aviation forecast (TAF) to Hadley Airport

Closest forecast is Tonopah Airport, 38.2 nm (70.7 km) S. Retrieved 2020-04-09 00:22 UTC (27 minutes ago):

TAF KTPH 082320Z 0900/0924 13015G25KT P6SM VCTS SCT045CB OVC080 FM090300 12010KT P6SM -SHRA SCT015 OVC030 FM091000 18005KT 4SM -SN BR OVC015 FM091700 20010KT P6SM VCSH BKN045 OVC080